createdAt,value
2019-01-21T00:01:18.248Z,90.60
2019-01-21T00:03:53.894Z,90.50
2019-01-21T00:06:29.130Z,90.50
2019-01-21T00:09:05.652Z,90.60
2019-01-21T00:11:40.869Z,90.50
2019-01-21T00:14:16.923Z,90.50
2019-01-21T00:16:52.103Z,90.40
2019-01-21T00:19:27.049Z,90.40
2019-01-21T00:22:02.225Z,90.60
2019-01-21T00:24:37.077Z,90.50
2019-01-21T00:27:11.983Z,90.30
2019-01-21T00:29:46.869Z,90.30
2019-01-21T00:32:21.741Z,90.20
2019-01-21T00:34:56.593Z,90.00
2019-01-21T00:37:31.490Z,89.30
2019-01-21T00:40:09.617Z,89.60
2019-01-21T00:42:44.482Z,89.70
2019-01-21T00:45:19.714Z,89.90
2019-01-21T00:47:58.379Z,89.80
2019-01-21T00:50:33.738Z,90.00
2019-01-21T00:53:08.578Z,90.00
2019-01-21T00:55:43.801Z,90.10
2019-01-21T00:58:18.722Z,90.10
2019-01-21T01:00:53.653Z,90.10
2019-01-21T01:03:28.497Z,90.10
2019-01-21T01:06:03.635Z,90.20
2019-01-21T01:08:38.491Z,90.20
2019-01-21T01:11:13.354Z,90.20
2019-01-21T01:13:48.543Z,90.30
2019-01-21T01:16:24.079Z,90.30
2019-01-21T01:18:58.981Z,90.40
2019-01-21T01:21:34.162Z,90.10
2019-01-21T01:24:09.005Z,90.20
2019-01-21T01:26:44.140Z,90.20
2019-01-21T01:29:19.265Z,90.20
2019-01-21T01:31:54.133Z,90.10
2019-01-21T01:34:29.325Z,90.20
2019-01-21T01:37:06.119Z,90.20
2019-01-21T01:39:40.961Z,90.30
2019-01-21T01:42:16.197Z,90.30
2019-01-21T01:44:51.037Z,90.40
2019-01-21T01:47:25.994Z,90.00
2019-01-21T01:50:01.813Z,90.00
2019-01-21T01:52:36.674Z,89.80
2019-01-21T01:55:11.529Z,89.90
2019-01-21T01:57:47.381Z,90.00
2019-01-21T02:00:22.966Z,90.20
2019-01-21T02:02:58.168Z,90.30
2019-01-21T02:05:36.415Z,90.30
2019-01-21T02:08:11.282Z,90.50
2019-01-21T02:10:46.201Z,90.70
2019-01-21T02:13:22.671Z,90.60
2019-01-21T02:15:58.223Z,90.70
2019-01-21T02:18:33.442Z,90.60
2019-01-21T02:21:08.680Z,90.60
2019-01-21T02:23:45.252Z,90.60
2019-01-21T02:26:20.198Z,90.60
2019-01-21T02:29:08.320Z,90.60
2019-01-21T02:32:12.349Z,90.60
2019-01-21T02:35:10.048Z,90.40
2019-01-21T02:38:07.622Z,90.50
2019-01-21T02:40:56.085Z,90.60
2019-01-21T02:43:34.528Z,90.60
2019-01-21T02:46:25.750Z,90.70
2019-01-21T02:49:06.930Z,90.70
2019-01-21T02:51:51.790Z,90.70
2019-01-21T02:54:42.841Z,90.60
2019-01-21T02:57:38.072Z,90.50
2019-01-21T03:00:35.674Z,90.40
2019-01-21T03:03:17.192Z,90.40
2019-01-21T03:06:04.793Z,90.50
2019-01-21T03:09:05.122Z,90.40
2019-01-21T03:11:47.852Z,90.50
2019-01-21T03:14:33.086Z,90.60
2019-01-21T03:17:29.119Z,90.50
2019-01-21T03:20:10.740Z,90.80
2019-01-21T03:22:48.867Z,90.70
2019-01-21T03:25:43.518Z,90.80
2019-01-21T03:28:34.242Z,90.90
2019-01-21T03:31:15.259Z,90.90
2019-01-21T03:34:09.297Z,90.80
2019-01-21T03:37:05.482Z,91.00
2019-01-21T03:40:06.265Z,91.00
2019-01-21T03:42:47.829Z,91.10
2019-01-21T03:45:35.090Z,91.10
2019-01-21T03:48:16.811Z,90.80
2019-01-21T03:50:58.879Z,90.90
2019-01-21T03:53:46.349Z,90.90
2019-01-21T03:56:24.589Z,91.10
2019-01-21T03:59:27.583Z,91.00
2019-01-21T04:02:18.485Z,90.80
2019-01-21T04:05:09.049Z,90.90
2019-01-21T04:08:05.342Z,90.80
2019-01-21T04:11:14.478Z,90.90
2019-01-21T04:14:08.527Z,90.90
2019-01-21T04:17:17.710Z,90.90
2019-01-21T04:19:58.976Z,90.70
2019-01-21T04:22:38.388Z,90.60
2019-01-21T04:25:29.014Z,90.60
2019-01-21T04:28:07.297Z,90.50
2019-01-21T04:30:58.174Z,90.50
2019-01-21T04:33:49.446Z,90.50
2019-01-21T04:36:45.345Z,90.70
2019-01-21T04:39:26.861Z,90.70
2019-01-21T04:42:14.729Z,91.10
2019-01-21T04:45:05.100Z,91.10
2019-01-21T04:48:05.577Z,91.20
2019-01-21T04:51:10.840Z,91.20
2019-01-21T04:54:05.206Z,91.30
2019-01-21T04:57:02.847Z,91.20
2019-01-21T05:00:02.557Z,91.00
2019-01-21T05:02:58.479Z,91.00
2019-01-21T05:05:40.150Z,91.10
2019-01-21T05:08:37.904Z,91.00
2019-01-21T05:11:30.253Z,91.10
2019-01-21T05:14:15.322Z,91.20
2019-01-21T05:17:07.462Z,91.40
2019-01-21T05:19:51.962Z,91.60
2019-01-21T05:22:40.282Z,91.80
2019-01-21T05:25:27.493Z,91.60
2019-01-21T05:28:34.954Z,91.70
2019-01-21T05:31:22.446Z,91.70
2019-01-21T05:34:18.738Z,91.80
2019-01-21T05:36:57.117Z,91.90
2019-01-21T05:39:55.620Z,92.00
2019-01-21T05:42:46.458Z,91.60
2019-01-21T05:45:41.035Z,91.50
2019-01-21T05:48:35.914Z,91.50
2019-01-21T05:51:17.736Z,91.40
2019-01-21T05:54:31.888Z,91.10
2019-01-21T05:57:37.318Z,91.10
2019-01-21T06:00:45.082Z,91.20
2019-01-21T06:03:29.786Z,91.20
2019-01-21T06:06:13.517Z,91.40
2019-01-21T06:09:09.709Z,91.40
2019-01-21T06:11:48.192Z,91.30
2019-01-21T06:14:29.297Z,91.40
2019-01-21T06:17:10.415Z,91.30
2019-01-21T06:20:15.083Z,91.20
2019-01-21T06:23:19.450Z,91.20
2019-01-21T06:26:16.861Z,91.00
2019-01-21T06:29:10.758Z,91.20
2019-01-21T06:31:52.739Z,90.80
2019-01-21T06:34:40.216Z,90.70
2019-01-21T06:37:27.888Z,90.90
2019-01-21T06:40:31.802Z,90.50
2019-01-21T06:43:28.037Z,90.50
2019-01-21T06:46:18.966Z,90.50
2019-01-21T06:49:13.822Z,90.60
2019-01-21T06:52:12.567Z,90.50
2019-01-21T06:55:16.101Z,90.50
2019-01-21T06:58:22.216Z,90.70
2019-01-21T07:01:27.677Z,91.00
2019-01-21T07:04:11.942Z,91.10
2019-01-21T07:07:27.075Z,90.90
2019-01-21T07:10:14.517Z,91.00
2019-01-21T07:13:10.717Z,91.00
2019-01-21T07:16:01.329Z,90.70
2019-01-21T07:18:52.350Z,90.50
2019-01-21T07:21:37.340Z,90.50
2019-01-21T07:24:21.795Z,90.60
2019-01-21T07:27:09.502Z,90.60
2019-01-21T07:30:08.092Z,90.60
2019-01-21T07:33:05.869Z,90.70
2019-01-21T07:35:52.798Z,90.70
2019-01-21T07:38:34.271Z,90.80
2019-01-21T07:41:41.300Z,90.70
2019-01-21T07:44:22.489Z,90.90
2019-01-21T07:47:00.706Z,90.80
2019-01-21T07:50:04.752Z,90.70
2019-01-21T07:52:56.387Z,90.70
2019-01-21T07:55:41.056Z,90.70
2019-01-21T07:58:39.736Z,90.60
2019-01-21T08:01:40.032Z,90.60
2019-01-21T08:04:21.118Z,90.40
2019-01-21T08:07:19.654Z,90.10
2019-01-21T08:10:00.718Z,90.30
2019-01-21T08:13:05.107Z,90.30
2019-01-21T08:16:07.382Z,90.10
2019-01-21T08:18:51.524Z,90.30
2019-01-21T08:21:37.030Z,89.80
2019-01-21T08:24:32.941Z,89.60
2019-01-21T08:27:39.929Z,89.30
2019-01-21T08:30:20.967Z,89.60
2019-01-21T08:33:16.909Z,89.50
2019-01-21T08:36:18.273Z,89.90
2019-01-21T08:39:19.218Z,90.00
2019-01-21T08:42:00.490Z,89.80
2019-01-21T08:45:06.142Z,89.10
2019-01-21T08:47:54.510Z,89.10
2019-01-21T08:50:35.502Z,89.10
2019-01-21T08:53:16.761Z,88.90
2019-01-21T08:56:01.097Z,88.80
2019-01-21T08:59:05.591Z,88.70
2019-01-21T09:01:43.729Z,88.70
2019-01-21T09:04:27.673Z,87.50
2019-01-21T09:07:21.301Z,88.00
2019-01-21T09:10:16.228Z,87.70
2019-01-21T09:13:14.676Z,87.00
2019-01-21T09:15:55.812Z,86.60
2019-01-21T09:18:37.080Z,86.60
2019-01-21T09:21:35.398Z,87.00
2019-01-21T09:24:24.991Z,87.50
2019-01-21T09:27:15.545Z,86.90
2019-01-21T09:30:12.810Z,86.50
2019-01-21T09:33:03.421Z,86.80
2019-01-21T09:35:57.529Z,87.40
2019-01-21T09:38:51.895Z,86.70
2019-01-21T09:41:53.788Z,85.90
2019-01-21T09:44:38.010Z,85.50
2019-01-21T09:47:12.221Z,85.10
2019-01-21T09:49:47.085Z,85.90
2019-01-21T09:52:22.027Z,87.00
2019-01-21T09:54:56.891Z,87.60
2019-01-21T09:57:31.737Z,87.40
2019-01-21T10:00:15.670Z,87.00
2019-01-21T10:02:51.638Z,87.40
2019-01-21T10:05:27.422Z,87.30
2019-01-21T10:08:08.582Z,86.90
2019-01-21T10:11:03.571Z,86.60
2019-01-21T10:13:58.247Z,86.50
2019-01-21T10:16:45.917Z,86.20
2019-01-21T10:19:55.251Z,85.40
2019-01-21T10:22:40.013Z,84.90
2019-01-21T10:25:28.356Z,84.70
2019-01-21T10:28:06.642Z,84.30
2019-01-21T10:30:54.817Z,83.20
2019-01-21T10:33:53.773Z,82.90
2019-01-21T10:36:49.674Z,82.40
2019-01-21T10:39:31.547Z,83.30
2019-01-21T10:42:16.160Z,81.70
2019-01-21T10:45:05.546Z,81.60
2019-01-21T10:47:50.211Z,81.90
2019-01-21T10:50:36.160Z,82.70
2019-01-21T10:53:20.602Z,83.50
2019-01-21T10:56:08.230Z,83.70
2019-01-21T10:58:46.345Z,82.50
2019-01-21T11:01:54.817Z,82.20
2019-01-21T11:04:46.637Z,81.50
2019-01-21T11:07:44.353Z,80.80
2019-01-21T11:10:35.124Z,79.90
2019-01-21T11:13:17.637Z,78.80
2019-01-21T11:16:01.961Z,77.10
2019-01-21T11:18:40.404Z,75.80
2019-01-21T11:21:18.793Z,77.20
2019-01-21T11:24:13.644Z,77.50
2019-01-21T11:27:07.844Z,76.70
2019-01-21T11:29:52.119Z,76.60
2019-01-21T11:32:36.927Z,78.00
2019-01-21T11:35:49.221Z,79.10
2019-01-21T11:38:37.716Z,78.80
2019-01-21T11:41:28.250Z,78.60
2019-01-21T11:44:12.424Z,76.10
2019-01-21T11:47:00.162Z,76.20
2019-01-21T11:50:10.310Z,76.20
2019-01-21T11:53:03.549Z,75.90
2019-01-21T11:55:55.101Z,76.30
2019-01-21T11:58:49.696Z,76.70
2019-01-21T12:01:45.638Z,76.90
2019-01-21T12:04:24.154Z,78.40
2019-01-21T12:07:18.731Z,78.70
2019-01-21T12:10:22.643Z,78.80
2019-01-21T12:13:21.708Z,78.90
2019-01-21T12:16:06.502Z,78.30
2019-01-21T12:18:47.625Z,77.10
2019-01-21T12:21:43.574Z,77.40
2019-01-21T12:24:19.979Z,77.20
2019-01-21T12:26:58.173Z,76.90
2019-01-21T12:29:42.329Z,77.10
2019-01-21T12:32:43.993Z,76.10
2019-01-21T12:35:25.369Z,76.40
2019-01-21T12:38:28.639Z,76.60
2019-01-21T12:41:28.995Z,76.80
2019-01-21T12:44:28.643Z,76.70
2019-01-21T12:47:09.693Z,76.00
2019-01-21T12:49:55.074Z,76.30
2019-01-21T12:52:33.637Z,77.00
2019-01-21T12:55:17.421Z,77.50
2019-01-21T12:58:01.930Z,77.70
2019-01-21T13:00:46.762Z,78.70
2019-01-21T13:03:35.201Z,79.10
2019-01-21T13:06:34.008Z,79.80
2019-01-21T13:09:33.287Z,80.40
2019-01-21T13:12:34.370Z,80.40
2019-01-21T13:15:15.821Z,80.80
2019-01-21T13:18:06.696Z,81.10
2019-01-21T13:20:51.039Z,81.10
2019-01-21T13:23:32.769Z,81.60
2019-01-21T13:26:38.539Z,82.40
2019-01-21T13:29:17.085Z,82.70
2019-01-21T13:32:01.179Z,82.90
2019-01-21T13:34:52.722Z,83.00
2019-01-21T13:37:46.974Z,82.70
2019-01-21T13:40:54.114Z,82.90
2019-01-21T13:43:51.542Z,83.50
2019-01-21T13:46:46.358Z,83.80
2019-01-21T13:49:30.382Z,83.50
2019-01-21T13:52:32.330Z,83.20
2019-01-21T13:55:41.334Z,83.20
2019-01-21T13:58:53.425Z,83.30
2019-01-21T14:01:34.747Z,83.00
2019-01-21T14:04:18.833Z,83.00
2019-01-21T14:07:07.097Z,82.50
2019-01-21T14:09:55.058Z,82.50
2019-01-21T14:12:59.700Z,82.50
2019-01-21T14:15:37.822Z,82.00
2019-01-21T14:18:18.570Z,81.40
2019-01-21T14:21:09.440Z,81.50
2019-01-21T14:24:18.657Z,81.40
2019-01-21T14:27:18.908Z,81.40
2019-01-21T14:29:57.046Z,81.10
2019-01-21T14:32:48.429Z,81.00
2019-01-21T14:35:29.306Z,81.00
2019-01-21T14:38:07.434Z,81.50
2019-01-21T14:40:48.736Z,81.60
2019-01-21T14:43:49.490Z,81.60
2019-01-21T14:46:40.431Z,81.40
2019-01-21T14:49:19.437Z,80.90
2019-01-21T14:52:03.893Z,81.00
2019-01-21T14:55:18.061Z,81.10
2019-01-21T14:58:23.140Z,81.20
2019-01-21T15:01:04.412Z,81.40
2019-01-21T15:03:58.682Z,81.80
2019-01-21T15:06:48.034Z,82.30
2019-01-21T15:09:33.646Z,82.40
2019-01-21T15:12:27.683Z,83.10
2019-01-21T15:15:12.840Z,83.30
2019-01-21T15:18:04.184Z,83.60
2019-01-21T15:20:57.850Z,83.70
2019-01-21T15:23:55.433Z,84.50
2019-01-21T15:26:33.662Z,84.70
2019-01-21T15:29:27.938Z,85.00
2019-01-21T15:32:12.494Z,85.60
2019-01-21T15:34:53.486Z,85.90
2019-01-21T15:38:07.845Z,86.00
2019-01-21T15:40:51.927Z,86.20
2019-01-21T15:43:30.113Z,86.30
2019-01-21T15:46:11.324Z,86.70
2019-01-21T15:49:02.305Z,87.40
2019-01-21T15:51:49.927Z,88.30
2019-01-21T15:54:45.850Z,88.60
2019-01-21T15:57:24.231Z,88.80
2019-01-21T16:00:02.595Z,88.70
2019-01-21T16:02:54.286Z,88.40
2019-01-21T16:05:48.568Z,88.40
2019-01-21T16:08:27.158Z,88.20
2019-01-21T16:11:15.498Z,88.40
2019-01-21T16:13:50.990Z,88.60
2019-01-21T16:16:31.979Z,88.80
2019-01-21T16:19:10.474Z,88.60
2019-01-21T16:22:24.497Z,88.50
2019-01-21T16:25:18.974Z,88.40
2019-01-21T16:28:24.450Z,88.50
2019-01-21T16:31:08.793Z,88.50
2019-01-21T16:34:05.033Z,88.90
2019-01-21T16:37:01.605Z,88.70
2019-01-21T16:40:17.342Z,89.00
2019-01-21T16:42:52.215Z,88.80
2019-01-21T16:45:27.447Z,88.90
2019-01-21T16:48:03.383Z,88.60
2019-01-21T16:50:38.518Z,88.50
2019-01-21T16:53:13.645Z,88.40
2019-01-21T16:55:48.536Z,88.70
2019-01-21T16:58:23.722Z,88.50
2019-01-21T17:00:58.978Z,88.90
2019-01-21T17:03:34.201Z,88.90
2019-01-21T17:06:09.342Z,88.90
2019-01-21T17:08:44.473Z,89.10
2019-01-21T17:11:19.323Z,89.20
2019-01-21T17:13:54.545Z,89.00
2019-01-21T17:16:30.334Z,89.20
2019-01-21T17:19:05.178Z,89.40
2019-01-21T17:21:40.138Z,89.40
2019-01-21T17:24:15.807Z,89.40
2019-01-21T17:26:51.068Z,89.20
2019-01-21T17:29:26.293Z,89.70
2019-01-21T17:32:01.146Z,89.90
2019-01-21T17:34:36.358Z,90.00
2019-01-21T17:37:11.197Z,90.20
2019-01-21T17:39:46.066Z,90.20
2019-01-21T17:42:21.175Z,90.60
2019-01-21T17:44:56.025Z,90.70
2019-01-21T17:47:30.869Z,91.00
2019-01-21T17:50:09.002Z,91.30
2019-01-21T17:52:43.870Z,91.60
2019-01-21T17:55:19.766Z,91.80
2019-01-21T17:57:54.955Z,92.00
2019-01-21T18:00:30.094Z,92.00
2019-01-21T18:03:05.127Z,91.90
2019-01-21T18:05:40.439Z,92.00
2019-01-21T18:08:15.294Z,92.10
2019-01-21T18:10:50.226Z,92.10
2019-01-21T18:13:25.094Z,92.20
2019-01-21T18:16:00.039Z,92.20
2019-01-21T18:18:34.877Z,92.30
2019-01-21T18:21:09.856Z,92.30
2019-01-21T18:23:45.098Z,92.20
2019-01-21T18:26:19.961Z,92.40
2019-01-21T18:28:55.069Z,92.40
2019-01-21T18:31:29.926Z,92.50
2019-01-21T18:34:04.814Z,92.60
2019-01-21T18:36:39.684Z,92.60
2019-01-21T18:39:14.904Z,92.80
2019-01-21T18:41:50.036Z,92.70
2019-01-21T18:44:24.902Z,92.60
2019-01-21T18:47:00.243Z,92.30
2019-01-21T18:49:35.123Z,92.20
2019-01-21T18:52:10.397Z,92.20
2019-01-21T18:54:46.549Z,92.10
2019-01-21T18:57:21.415Z,92.10
2019-01-21T18:59:56.295Z,92.10
2019-01-21T19:02:31.941Z,92.00
2019-01-21T19:05:07.734Z,92.00
2019-01-21T19:07:43.668Z,92.00
2019-01-21T19:10:19.071Z,92.00
2019-01-21T19:12:54.200Z,92.00
2019-01-21T19:15:31.596Z,92.00
2019-01-21T19:18:06.733Z,92.10
2019-01-21T19:20:42.098Z,92.00
2019-01-21T19:23:17.271Z,92.00
2019-01-21T19:25:52.158Z,92.10
2019-01-21T19:28:27.330Z,92.20
2019-01-21T19:31:02.192Z,92.10
2019-01-21T19:33:37.375Z,92.10
2019-01-21T19:36:12.302Z,92.20
2019-01-21T19:38:47.482Z,92.40
2019-01-21T19:41:23.816Z,92.20
2019-01-21T19:43:58.971Z,92.10
2019-01-21T19:46:33.835Z,92.00
2019-01-21T19:49:08.691Z,92.00
2019-01-21T19:51:43.619Z,92.00
2019-01-21T19:54:18.732Z,91.90
2019-01-21T19:56:53.707Z,91.90
2019-01-21T19:59:29.718Z,91.80
2019-01-21T20:02:04.598Z,91.90
2019-01-21T20:04:40.312Z,91.80
2019-01-21T20:07:15.178Z,91.80
2019-01-21T20:09:50.619Z,91.80
2019-01-21T20:12:25.463Z,91.90
2019-01-21T20:15:00.605Z,91.80
2019-01-21T20:17:36.951Z,91.80
2019-01-21T20:20:24.463Z,91.90
2019-01-21T20:22:59.327Z,91.90
2019-01-21T20:25:36.094Z,91.80
2019-01-21T20:28:11.222Z,91.90
2019-01-21T20:30:46.123Z,92.10
2019-01-21T20:33:21.308Z,92.10
2019-01-21T20:35:56.287Z,92.30
2019-01-21T20:38:31.154Z,92.60
2019-01-21T20:41:06.016Z,92.60
2019-01-21T20:43:41.170Z,92.50
2019-01-21T20:46:16.171Z,92.90
2019-01-21T20:48:51.989Z,93.00
2019-01-21T20:51:26.842Z,93.00
2019-01-21T20:54:01.728Z,93.00
2019-01-21T20:56:36.693Z,92.90
2019-01-21T20:59:11.832Z,92.60
2019-01-21T21:01:46.687Z,92.70
2019-01-21T21:04:22.918Z,92.60
2019-01-21T21:06:57.800Z,92.40
2019-01-21T21:09:33.787Z,92.30
2019-01-21T21:12:08.846Z,92.20
2019-01-21T21:14:44.149Z,92.10
2019-01-21T21:17:19.186Z,92.10
2019-01-21T21:19:54.951Z,92.10
2019-01-21T21:22:30.501Z,92.10
2019-01-21T21:25:09.362Z,92.30
2019-01-21T21:27:44.650Z,92.40
2019-01-21T21:30:21.937Z,92.40
2019-01-21T21:32:57.234Z,92.40
2019-01-21T21:35:33.479Z,92.50
2019-01-21T21:38:08.902Z,92.50
2019-01-21T21:40:43.957Z,92.40
2019-01-21T21:43:19.028Z,92.40
2019-01-21T21:45:54.071Z,92.40
2019-01-21T21:48:31.823Z,92.40
2019-01-21T21:51:06.086Z,92.60
2019-01-21T21:53:41.571Z,92.60
2019-01-21T21:56:16.818Z,92.80
2019-01-21T21:58:51.905Z,92.80
2019-01-21T22:01:27.114Z,92.80
2019-01-21T22:04:02.122Z,92.90
2019-01-21T22:06:37.365Z,93.00
2019-01-21T22:09:12.272Z,93.10
2019-01-21T22:11:47.850Z,93.20
2019-01-21T22:14:22.879Z,93.20
2019-01-21T22:16:58.980Z,93.10
2019-01-21T22:19:35.128Z,93.10
2019-01-21T22:22:10.165Z,93.10
2019-01-21T22:24:45.280Z,93.10
2019-01-21T22:27:20.289Z,92.90
2019-01-21T22:29:55.779Z,92.90
2019-01-21T22:32:31.594Z,92.80
2019-01-21T22:35:07.580Z,93.60
2019-01-21T22:37:42.523Z,92.90
2019-01-21T22:40:19.422Z,92.40
2019-01-21T22:42:54.698Z,92.20
2019-01-21T22:45:29.949Z,92.30
2019-01-21T22:48:05.192Z,92.40
2019-01-21T22:50:40.367Z,92.40
2019-01-21T22:53:15.327Z,92.40
2019-01-21T22:55:51.195Z,92.40
2019-01-21T22:58:26.385Z,92.50
2019-01-21T23:01:04.551Z,92.40
2019-01-21T23:03:39.753Z,92.40
2019-01-21T23:06:15.450Z,92.50
2019-01-21T23:08:51.325Z,92.50
2019-01-21T23:11:26.178Z,92.50
2019-01-21T23:14:01.144Z,92.60
2019-01-21T23:16:36.603Z,92.70
2019-01-21T23:19:11.693Z,92.80
2019-01-21T23:21:46.578Z,92.90
2019-01-21T23:24:21.818Z,93.20
2019-01-21T23:26:56.757Z,93.20
2019-01-21T23:29:31.611Z,93.30
2019-01-21T23:32:06.651Z,93.40
2019-01-21T23:34:44.235Z,93.40
2019-01-21T23:37:18.321Z,93.40
2019-01-21T23:39:53.461Z,93.50
2019-01-21T23:42:31.823Z,93.50
2019-01-21T23:45:08.862Z,93.70
2019-01-21T23:47:44.106Z,93.60
2019-01-21T23:50:19.031Z,93.70
2019-01-21T23:52:56.228Z,93.80
2019-01-21T23:55:31.297Z,93.90
2019-01-21T23:58:06.507Z,93.90
